sensor_id;sensor_type;location;lat;lon;timestamp;P1;durP1;ratioP1;P2;durP2;ratioP2
40170;SDS011;37650;52.790;18.268;2022-09-09T00:04:30;10.80;;;8.10;;
40170;SDS011;37650;52.790;18.268;2022-09-09T00:07:58;10.60;;;7.50;;
40170;SDS011;37650;52.790;18.268;2022-09-09T00:11:24;8.90;;;8.00;;
40170;SDS011;37650;52.790;18.268;2022-09-09T00:18:10;12.00;;;8.20;;
40170;SDS011;37650;52.790;18.268;2022-09-09T00:21:36;9.60;;;8.20;;
40170;SDS011;37650;52.790;18.268;2022-09-09T00:28:22;7.80;;;6.00;;
40170;SDS011;37650;52.790;18.268;2022-09-09T00:31:45;11.10;;;7.90;;
40170;SDS011;37650;52.790;18.268;2022-09-09T00:38:35;9.90;;;8.70;;
40170;SDS011;37650;52.790;18.268;2022-09-09T00:45:51;10.70;;;8.60;;
40170;SDS011;37650;52.790;18.268;2022-09-09T00:49:09;9.90;;;8.50;;
40170;SDS011;37650;52.790;18.268;2022-09-09T00:59:34;12.50;;;8.90;;
40170;SDS011;37650;52.790;18.268;2022-09-09T01:06:32;10.00;;;8.30;;
40170;SDS011;37650;52.790;18.268;2022-09-09T01:09:55;12.80;;;7.80;;
40170;SDS011;37650;52.790;18.268;2022-09-09T01:13:22;11.80;;;9.00;;
40170;SDS011;37650;52.790;18.268;2022-09-09T01:16:45;10.00;;;8.40;;
40170;SDS011;37650;52.790;18.268;2022-09-09T01:20:17;9.10;;;7.60;;
40170;SDS011;37650;52.790;18.268;2022-09-09T01:27:21;9.40;;;7.80;;
40170;SDS011;37650;52.790;18.268;2022-09-09T01:30:44;9.40;;;7.70;;
40170;SDS011;37650;52.790;18.268;2022-09-09T01:34:12;11.20;;;7.90;;
40170;SDS011;37650;52.790;18.268;2022-09-09T01:37:34;9.30;;;7.70;;
40170;SDS011;37650;52.790;18.268;2022-09-09T01:40:55;10.70;;;8.40;;
40170;SDS011;37650;52.790;18.268;2022-09-09T01:44:22;8.90;;;7.90;;
40170;SDS011;37650;52.790;18.268;2022-09-09T01:47:46;11.80;;;7.90;;
40170;SDS011;37650;52.790;18.268;2022-09-09T01:51:15;10.20;;;7.70;;
40170;SDS011;37650;52.790;18.268;2022-09-09T01:54:35;10.40;;;8.90;;
40170;SDS011;37650;52.790;18.268;2022-09-09T01:58:20;11.50;;;8.40;;
40170;SDS011;37650;52.790;18.268;2022-09-09T02:05:39;9.20;;;7.60;;
40170;SDS011;37650;52.790;18.268;2022-09-09T02:09:06;11.30;;;8.00;;
40170;SDS011;37650;52.790;18.268;2022-09-09T02:12:29;10.90;;;9.80;;
40170;SDS011;37650;52.790;18.268;2022-09-09T02:16:01;12.70;;;8.70;;
40170;SDS011;37650;52.790;18.268;2022-09-09T02:19:32;8.80;;;7.90;;
40170;SDS011;37650;52.790;18.268;2022-09-09T02:23:09;9.70;;;7.30;;
40170;SDS011;37650;52.790;18.268;2022-09-09T02:26:31;9.00;;;8.00;;
40170;SDS011;37650;52.790;18.268;2022-09-09T02:29:56;12.00;;;8.90;;
40170;SDS011;37650;52.790;18.268;2022-09-09T02:33:37;9.40;;;8.40;;
40170;SDS011;37650;52.790;18.268;2022-09-09T02:37:11;10.90;;;8.00;;
40170;SDS011;37650;52.790;18.268;2022-09-09T02:40:36;8.90;;;8.00;;
40170;SDS011;37650;52.790;18.268;2022-09-09T02:43:58;10.00;;;8.30;;
40170;SDS011;37650;52.790;18.268;2022-09-09T02:51:10;11.50;;;9.50;;
40170;SDS011;37650;52.790;18.268;2022-09-09T02:54:37;10.60;;;8.00;;
40170;SDS011;37650;52.790;18.268;2022-09-09T02:58:03;11.90;;;9.30;;
40170;SDS011;37650;52.790;18.268;2022-09-09T03:01:28;10.50;;;9.00;;
40170;SDS011;37650;52.790;18.268;2022-09-09T03:04:49;10.70;;;9.00;;
40170;SDS011;37650;52.790;18.268;2022-09-09T03:08:13;7.70;;;6.80;;
40170;SDS011;37650;52.790;18.268;2022-09-09T03:11:36;11.90;;;10.20;;
40170;SDS011;37650;52.790;18.268;2022-09-09T03:14:59;11.20;;;9.30;;
40170;SDS011;37650;52.790;18.268;2022-09-09T03:18:20;10.90;;;9.80;;
40170;SDS011;37650;52.790;18.268;2022-09-09T03:21:45;10.70;;;9.60;;
40170;SDS011;37650;52.790;18.268;2022-09-09T03:25:09;12.00;;;10.40;;
40170;SDS011;37650;52.790;18.268;2022-09-09T03:28:31;11.70;;;9.40;;
40170;SDS011;37650;52.790;18.268;2022-09-09T03:31:53;12.00;;;10.40;;
40170;SDS011;37650;52.790;18.268;2022-09-09T03:35:15;10.90;;;9.60;;
40170;SDS011;37650;52.790;18.268;2022-09-09T03:38:37;10.70;;;9.60;;
40170;SDS011;37650;52.790;18.268;2022-09-09T03:41:58;13.20;;;9.30;;
40170;SDS011;37650;52.790;18.268;2022-09-09T03:45:20;11.00;;;9.80;;
40170;SDS011;37650;52.790;18.268;2022-09-09T03:48:41;11.90;;;9.20;;
40170;SDS011;37650;52.790;18.268;2022-09-09T03:52:02;11.30;;;10.10;;
40170;SDS011;37650;52.790;18.268;2022-09-09T03:55:23;11.20;;;10.10;;
40170;SDS011;37650;52.790;18.268;2022-09-09T03:58:44;11.00;;;10.00;;
40170;SDS011;37650;52.790;18.268;2022-09-09T04:02:06;12.10;;;10.90;;
40170;SDS011;37650;52.790;18.268;2022-09-09T04:05:27;11.50;;;10.40;;
40170;SDS011;37650;52.790;18.268;2022-09-09T04:08:48;11.50;;;10.40;;
40170;SDS011;37650;52.790;18.268;2022-09-09T04:12:09;10.10;;;9.10;;
40170;SDS011;37650;52.790;18.268;2022-09-09T04:15:34;12.60;;;11.30;;
40170;SDS011;37650;52.790;18.268;2022-09-09T04:18:56;11.70;;;10.70;;
40170;SDS011;37650;52.790;18.268;2022-09-09T04:22:18;11.80;;;10.60;;
40170;SDS011;37650;52.790;18.268;2022-09-09T04:25:44;11.30;;;10.00;;
40170;SDS011;37650;52.790;18.268;2022-09-09T04:29:08;11.10;;;10.00;;
40170;SDS011;37650;52.790;18.268;2022-09-09T04:32:32;13.60;;;12.30;;
40170;SDS011;37650;52.790;18.268;2022-09-09T04:35:58;14.00;;;12.00;;
40170;SDS011;37650;52.790;18.268;2022-09-09T04:39:19;14.70;;;12.00;;
40170;SDS011;37650;52.790;18.268;2022-09-09T04:42:40;12.60;;;11.30;;
40170;SDS011;37650;52.790;18.268;2022-09-09T04:46:05;11.70;;;10.40;;
40170;SDS011;37650;52.790;18.268;2022-09-09T04:49:26;15.30;;;11.60;;
40170;SDS011;37650;52.790;18.268;2022-09-09T04:52:49;11.80;;;9.60;;
40170;SDS011;37650;52.790;18.268;2022-09-09T04:56:11;13.70;;;11.70;;
40170;SDS011;37650;52.790;18.268;2022-09-09T04:59:37;15.10;;;12.20;;
40170;SDS011;37650;52.790;18.268;2022-09-09T05:03:02;11.80;;;10.70;;
40170;SDS011;37650;52.790;18.268;2022-09-09T05:06:24;14.80;;;11.30;;
40170;SDS011;37650;52.790;18.268;2022-09-09T05:09:52;12.40;;;11.00;;
40170;SDS011;37650;52.790;18.268;2022-09-09T05:13:14;14.10;;;12.00;;
40170;SDS011;37650;52.790;18.268;2022-09-09T05:16:35;13.40;;;12.10;;
40170;SDS011;37650;52.790;18.268;2022-09-09T05:19:56;13.60;;;12.30;;
40170;SDS011;37650;52.790;18.268;2022-09-09T05:23:17;14.70;;;12.50;;
40170;SDS011;37650;52.790;18.268;2022-09-09T05:26:40;13.60;;;11.20;;
40170;SDS011;37650;52.790;18.268;2022-09-09T05:30:06;13.00;;;11.50;;
40170;SDS011;37650;52.790;18.268;2022-09-09T05:33:59;12.40;;;11.20;;
40170;SDS011;37650;52.790;18.268;2022-09-09T05:37:23;13.70;;;11.00;;
40170;SDS011;37650;52.790;18.268;2022-09-09T05:40:48;12.90;;;11.60;;
40170;SDS011;37650;52.790;18.268;2022-09-09T05:44:11;14.60;;;13.30;;
40170;SDS011;37650;52.790;18.268;2022-09-09T05:47:33;18.40;;;15.70;;
40170;SDS011;37650;52.790;18.268;2022-09-09T05:50:54;17.20;;;13.00;;
40170;SDS011;37650;52.790;18.268;2022-09-09T05:54:16;21.00;;;16.10;;
40170;SDS011;37650;52.790;18.268;2022-09-09T05:57:41;15.70;;;14.00;;
40170;SDS011;37650;52.790;18.268;2022-09-09T06:01:14;14.40;;;12.50;;
40170;SDS011;37650;52.790;18.268;2022-09-09T06:04:43;14.80;;;13.00;;
40170;SDS011;37650;52.790;18.268;2022-09-09T06:08:05;16.50;;;14.90;;
40170;SDS011;37650;52.790;18.268;2022-09-09T06:11:28;16.80;;;15.00;;
40170;SDS011;37650;52.790;18.268;2022-09-09T06:14:52;18.90;;;14.60;;
40170;SDS011;37650;52.790;18.268;2022-09-09T06:18:13;15.80;;;14.20;;
40170;SDS011;37650;52.790;18.268;2022-09-09T06:21:38;20.80;;;14.50;;
40170;SDS011;37650;52.790;18.268;2022-09-09T06:25:09;18.10;;;16.20;;
40170;SDS011;37650;52.790;18.268;2022-09-09T06:28:30;22.20;;;19.90;;
40170;SDS011;37650;52.790;18.268;2022-09-09T06:35:17;20.20;;;17.50;;
40170;SDS011;37650;52.790;18.268;2022-09-09T06:38:38;19.30;;;17.40;;
40170;SDS011;37650;52.790;18.268;2022-09-09T06:42:00;16.90;;;14.90;;
40170;SDS011;37650;52.790;18.268;2022-09-09T06:45:40;21.30;;;17.50;;
40170;SDS011;37650;52.790;18.268;2022-09-09T06:49:03;26.20;;;21.70;;
40170;SDS011;37650;52.790;18.268;2022-09-09T06:55:48;25.90;;;19.30;;
40170;SDS011;37650;52.790;18.268;2022-09-09T06:59:10;24.60;;;18.50;;
40170;SDS011;37650;52.790;18.268;2022-09-09T07:02:32;28.50;;;21.20;;
40170;SDS011;37650;52.790;18.268;2022-09-09T07:05:59;27.20;;;20.10;;
40170;SDS011;37650;52.790;18.268;2022-09-09T07:09:24;24.90;;;18.40;;
40170;SDS011;37650;52.790;18.268;2022-09-09T07:12:50;23.40;;;17.60;;
40170;SDS011;37650;52.790;18.268;2022-09-09T07:16:18;23.60;;;19.40;;
40170;SDS011;37650;52.790;18.268;2022-09-09T07:19:44;31.00;;;21.10;;
40170;SDS011;37650;52.790;18.268;2022-09-09T07:23:06;28.00;;;21.50;;
40170;SDS011;37650;52.790;18.268;2022-09-09T07:26:28;26.50;;;19.70;;
40170;SDS011;37650;52.790;18.268;2022-09-09T07:29:51;25.80;;;19.10;;
40170;SDS011;37650;52.790;18.268;2022-09-09T07:33:15;32.00;;;23.10;;
40170;SDS011;37650;52.790;18.268;2022-09-09T07:36:38;27.60;;;20.50;;
40170;SDS011;37650;52.790;18.268;2022-09-09T07:40:04;32.60;;;19.90;;
40170;SDS011;37650;52.790;18.268;2022-09-09T07:43:29;34.50;;;21.20;;
40170;SDS011;37650;52.790;18.268;2022-09-09T07:46:50;29.00;;;21.20;;
40170;SDS011;37650;52.790;18.268;2022-09-09T07:50:15;32.70;;;21.60;;
40170;SDS011;37650;52.790;18.268;2022-09-09T07:53:37;33.70;;;22.40;;
40170;SDS011;37650;52.790;18.268;2022-09-09T07:57:02;30.60;;;20.80;;
40170;SDS011;37650;52.790;18.268;2022-09-09T08:00:26;32.50;;;20.50;;
40170;SDS011;37650;52.790;18.268;2022-09-09T08:07:30;33.80;;;23.00;;
40170;SDS011;37650;52.790;18.268;2022-09-09T08:10:51;36.10;;;22.70;;
40170;SDS011;37650;52.790;18.268;2022-09-09T08:14:15;27.90;;;22.00;;
40170;SDS011;37650;52.790;18.268;2022-09-09T08:17:38;39.20;;;24.70;;
40170;SDS011;37650;52.790;18.268;2022-09-09T08:21:06;37.80;;;26.20;;
40170;SDS011;37650;52.790;18.268;2022-09-09T08:24:35;41.40;;;27.10;;
40170;SDS011;37650;52.790;18.268;2022-09-09T08:27:57;34.20;;;23.90;;
40170;SDS011;37650;52.790;18.268;2022-09-09T08:31:20;43.50;;;28.30;;
40170;SDS011;37650;52.790;18.268;2022-09-09T08:34:47;44.80;;;27.30;;
40170;SDS011;37650;52.790;18.268;2022-09-09T08:38:13;44.70;;;28.60;;
40170;SDS011;37650;52.790;18.268;2022-09-09T08:45:37;47.90;;;30.00;;
40170;SDS011;37650;52.790;18.268;2022-09-09T08:56:30;49.20;;;30.00;;
40170;SDS011;37650;52.790;18.268;2022-09-09T08:59:56;48.30;;;32.00;;
40170;SDS011;37650;52.790;18.268;2022-09-09T09:07:29;48.40;;;33.00;;
40170;SDS011;37650;52.790;18.268;2022-09-09T09:11:24;48.10;;;31.70;;
40170;SDS011;37650;52.790;18.268;2022-09-09T09:14:47;47.90;;;34.60;;
40170;SDS011;37650;52.790;18.268;2022-09-09T09:18:10;50.70;;;35.20;;
40170;SDS011;37650;52.790;18.268;2022-09-09T09:21:36;51.90;;;36.80;;
40170;SDS011;37650;52.790;18.268;2022-09-09T09:25:08;44.20;;;33.20;;
40170;SDS011;37650;52.790;18.268;2022-09-09T09:28:38;39.90;;;28.90;;
40170;SDS011;37650;52.790;18.268;2022-09-09T09:32:07;36.10;;;27.60;;
40170;SDS011;37650;52.790;18.268;2022-09-09T09:35:35;38.00;;;29.00;;
40170;SDS011;37650;52.790;18.268;2022-09-09T09:39:00;38.70;;;28.80;;
40170;SDS011;37650;52.790;18.268;2022-09-09T09:42:24;30.80;;;24.50;;
40170;SDS011;37650;52.790;18.268;2022-09-09T09:45:48;29.20;;;22.80;;
40170;SDS011;37650;52.790;18.268;2022-09-09T09:49:11;25.30;;;21.70;;
40170;SDS011;37650;52.790;18.268;2022-09-09T09:52:34;29.90;;;23.00;;
40170;SDS011;37650;52.790;18.268;2022-09-09T09:56:12;27.00;;;22.10;;
40170;SDS011;37650;52.790;18.268;2022-09-09T09:59:36;29.90;;;23.10;;
40170;SDS011;37650;52.790;18.268;2022-09-09T10:03:01;26.60;;;22.20;;
40170;SDS011;37650;52.790;18.268;2022-09-09T10:06:40;30.40;;;24.80;;
40170;SDS011;37650;52.790;18.268;2022-09-09T10:10:02;26.80;;;22.10;;
40170;SDS011;37650;52.790;18.268;2022-09-09T10:17:20;35.50;;;27.30;;
40170;SDS011;37650;52.790;18.268;2022-09-09T10:28:28;33.60;;;28.60;;
40170;SDS011;37650;52.790;18.268;2022-09-09T10:32:06;33.40;;;28.20;;
40170;SDS011;37650;52.790;18.268;2022-09-09T10:36:29;28.70;;;25.50;;
40170;SDS011;37650;52.790;18.268;2022-09-09T10:39:38;31.20;;;26.80;;
40170;SDS011;37650;52.790;18.268;2022-09-09T10:43:14;34.00;;;29.20;;
40170;SDS011;37650;52.790;18.268;2022-09-09T10:50:55;27.70;;;23.30;;
40170;SDS011;37650;52.790;18.268;2022-09-09T10:54:41;27.60;;;23.30;;
40170;SDS011;37650;52.790;18.268;2022-09-09T10:58:09;28.20;;;23.90;;
40170;SDS011;37650;52.790;18.268;2022-09-09T11:05:19;25.00;;;22.30;;
40170;SDS011;37650;52.790;18.268;2022-09-09T11:09:03;25.90;;;21.00;;
40170;SDS011;37650;52.790;18.268;2022-09-09T11:12:27;26.00;;;19.90;;
40170;SDS011;37650;52.790;18.268;2022-09-09T11:15:54;24.00;;;19.00;;
40170;SDS011;37650;52.790;18.268;2022-09-09T11:19:39;22.60;;;20.30;;
40170;SDS011;37650;52.790;18.268;2022-09-09T11:23:07;24.10;;;21.60;;
40170;SDS011;37650;52.790;18.268;2022-09-09T11:26:42;23.60;;;21.20;;
40170;SDS011;37650;52.790;18.268;2022-09-09T11:30:18;24.20;;;21.60;;
40170;SDS011;37650;52.790;18.268;2022-09-09T11:41:22;28.80;;;25.80;;
40170;SDS011;37650;52.790;18.268;2022-09-09T11:44:47;22.30;;;18.80;;
40170;SDS011;37650;52.790;18.268;2022-09-09T11:51:57;26.50;;;23.30;;
40170;SDS011;37650;52.790;18.268;2022-09-09T11:55:29;31.70;;;28.30;;
40170;SDS011;37650;52.790;18.268;2022-09-09T12:02:25;33.30;;;29.80;;
40170;SDS011;37650;52.790;18.268;2022-09-09T12:05:49;33.30;;;28.70;;
40170;SDS011;37650;52.790;18.268;2022-09-09T12:09:30;29.60;;;26.10;;
40170;SDS011;37650;52.790;18.268;2022-09-09T12:16:47;31.00;;;24.90;;
40170;SDS011;37650;52.790;18.268;2022-09-09T12:20:11;34.90;;;29.30;;
40170;SDS011;37650;52.790;18.268;2022-09-09T12:23:51;37.50;;;33.50;;
40170;SDS011;37650;52.790;18.268;2022-09-09T12:27:23;37.70;;;31.70;;
40170;SDS011;37650;52.790;18.268;2022-09-09T12:34:35;30.30;;;25.80;;
40170;SDS011;37650;52.790;18.268;2022-09-09T12:38:01;25.50;;;22.50;;
40170;SDS011;37650;52.790;18.268;2022-09-09T12:41:26;27.70;;;22.40;;
40170;SDS011;37650;52.790;18.268;2022-09-09T12:44:54;28.00;;;23.20;;
40170;SDS011;37650;52.790;18.268;2022-09-09T12:48:21;28.10;;;25.10;;
40170;SDS011;37650;52.790;18.268;2022-09-09T12:51:52;30.80;;;25.10;;
40170;SDS011;37650;52.790;18.268;2022-09-09T12:55:21;32.70;;;27.00;;
40170;SDS011;37650;52.790;18.268;2022-09-09T12:58:46;28.90;;;24.70;;
40170;SDS011;37650;52.790;18.268;2022-09-09T13:02:18;28.80;;;23.60;;
40170;SDS011;37650;52.790;18.268;2022-09-09T13:05:50;26.80;;;22.70;;
40170;SDS011;37650;52.790;18.268;2022-09-09T13:09:13;27.90;;;24.10;;
40170;SDS011;37650;52.790;18.268;2022-09-09T13:12:34;25.80;;;22.50;;
40170;SDS011;37650;52.790;18.268;2022-09-09T13:15:57;23.00;;;20.40;;
40170;SDS011;37650;52.790;18.268;2022-09-09T13:19:25;24.70;;;20.30;;
40170;SDS011;37650;52.790;18.268;2022-09-09T13:22:50;22.60;;;19.00;;
40170;SDS011;37650;52.790;18.268;2022-09-09T13:26:23;22.70;;;18.10;;
40170;SDS011;37650;52.790;18.268;2022-09-09T13:29:58;19.50;;;17.00;;
40170;SDS011;37650;52.790;18.268;2022-09-09T13:33:22;20.70;;;17.30;;
40170;SDS011;37650;52.790;18.268;2022-09-09T13:36:48;19.30;;;16.00;;
40170;SDS011;37650;52.790;18.268;2022-09-09T13:40:16;21.70;;;15.50;;
40170;SDS011;37650;52.790;18.268;2022-09-09T13:43:44;19.50;;;16.10;;
40170;SDS011;37650;52.790;18.268;2022-09-09T13:47:19;15.40;;;13.60;;
40170;SDS011;37650;52.790;18.268;2022-09-09T13:50:44;16.50;;;13.30;;
40170;SDS011;37650;52.790;18.268;2022-09-09T13:54:49;16.40;;;14.30;;
40170;SDS011;37650;52.790;18.268;2022-09-09T13:58:15;16.10;;;13.40;;
40170;SDS011;37650;52.790;18.268;2022-09-09T14:01:37;17.90;;;14.40;;
40170;SDS011;37650;52.790;18.268;2022-09-09T14:05:00;14.50;;;12.00;;
40170;SDS011;37650;52.790;18.268;2022-09-09T14:08:24;15.60;;;13.00;;
40170;SDS011;37650;52.790;18.268;2022-09-09T14:11:47;17.60;;;12.60;;
40170;SDS011;37650;52.790;18.268;2022-09-09T14:15:09;18.40;;;13.70;;
40170;SDS011;37650;52.790;18.268;2022-09-09T14:18:33;15.80;;;12.90;;
40170;SDS011;37650;52.790;18.268;2022-09-09T14:22:01;17.00;;;12.60;;
40170;SDS011;37650;52.790;18.268;2022-09-09T14:25:24;13.20;;;11.90;;
40170;SDS011;37650;52.790;18.268;2022-09-09T14:28:47;12.60;;;11.20;;
40170;SDS011;37650;52.790;18.268;2022-09-09T14:35:31;14.70;;;11.10;;
40170;SDS011;37650;52.790;18.268;2022-09-09T14:38:54;15.70;;;12.50;;
40170;SDS011;37650;52.790;18.268;2022-09-09T14:42:23;12.50;;;11.20;;
40170;SDS011;37650;52.790;18.268;2022-09-09T14:45:45;12.10;;;10.90;;
40170;SDS011;37650;52.790;18.268;2022-09-09T14:49:08;15.10;;;12.30;;
40170;SDS011;37650;52.790;18.268;2022-09-09T14:52:30;12.00;;;10.50;;
40170;SDS011;37650;52.790;18.268;2022-09-09T14:55:51;13.70;;;10.80;;
40170;SDS011;37650;52.790;18.268;2022-09-09T14:59:12;11.50;;;10.30;;
40170;SDS011;37650;52.790;18.268;2022-09-09T15:02:33;13.40;;;11.90;;
40170;SDS011;37650;52.790;18.268;2022-09-09T15:05:54;12.40;;;11.20;;
40170;SDS011;37650;52.790;18.268;2022-09-09T15:09:15;14.90;;;11.50;;
40170;SDS011;37650;52.790;18.268;2022-09-09T15:12:36;13.40;;;12.00;;
40170;SDS011;37650;52.790;18.268;2022-09-09T15:16:09;14.80;;;13.40;;
40170;SDS011;37650;52.790;18.268;2022-09-09T15:19:38;16.60;;;13.80;;
40170;SDS011;37650;52.790;18.268;2022-09-09T15:26:20;18.90;;;14.50;;
40170;SDS011;37650;52.790;18.268;2022-09-09T15:29:41;20.70;;;16.90;;
40170;SDS011;37650;52.790;18.268;2022-09-09T15:33:07;17.80;;;15.50;;
40170;SDS011;37650;52.790;18.268;2022-09-09T15:36:30;18.20;;;16.30;;
40170;SDS011;37650;52.790;18.268;2022-09-09T15:39:54;21.00;;;18.60;;
40170;SDS011;37650;52.790;18.268;2022-09-09T15:43:14;20.50;;;18.40;;
40170;SDS011;37650;52.790;18.268;2022-09-09T15:46:37;21.60;;;19.30;;
40170;SDS011;37650;52.790;18.268;2022-09-09T15:50:00;21.90;;;19.70;;
40170;SDS011;37650;52.790;18.268;2022-09-09T15:53:21;23.60;;;19.70;;
40170;SDS011;37650;52.790;18.268;2022-09-09T15:56:42;22.60;;;20.30;;
40170;SDS011;37650;52.790;18.268;2022-09-09T16:00:04;23.10;;;20.60;;
40170;SDS011;37650;52.790;18.268;2022-09-09T16:03:27;22.30;;;19.90;;
40170;SDS011;37650;52.790;18.268;2022-09-09T16:06:47;23.70;;;21.30;;
40170;SDS011;37650;52.790;18.268;2022-09-09T16:10:09;21.60;;;19.40;;
40170;SDS011;37650;52.790;18.268;2022-09-09T16:13:35;22.30;;;19.90;;
40170;SDS011;37650;52.790;18.268;2022-09-09T16:16:58;21.70;;;19.40;;
40170;SDS011;37650;52.790;18.268;2022-09-09T16:20:19;22.20;;;19.90;;
40170;SDS011;37650;52.790;18.268;2022-09-09T16:27:02;25.20;;;20.90;;
40170;SDS011;37650;52.790;18.268;2022-09-09T16:30:23;26.10;;;23.30;;
40170;SDS011;37650;52.790;18.268;2022-09-09T16:33:45;22.90;;;20.60;;
40170;SDS011;37650;52.790;18.268;2022-09-09T16:37:07;19.30;;;17.40;;
40170;SDS011;37650;52.790;18.268;2022-09-09T16:40:27;21.10;;;19.00;;
40170;SDS011;37650;52.790;18.268;2022-09-09T16:43:52;22.90;;;18.70;;
40170;SDS011;37650;52.790;18.268;2022-09-09T16:47:17;23.20;;;19.90;;
40170;SDS011;37650;52.790;18.268;2022-09-09T16:50:38;23.40;;;21.00;;
40170;SDS011;37650;52.790;18.268;2022-09-09T16:54:00;20.70;;;18.40;;
40170;SDS011;37650;52.790;18.268;2022-09-09T16:57:23;20.70;;;18.50;;
40170;SDS011;37650;52.790;18.268;2022-09-09T17:00:44;20.90;;;18.60;;
40170;SDS011;37650;52.790;18.268;2022-09-09T17:04:08;23.20;;;20.80;;
40170;SDS011;37650;52.790;18.268;2022-09-09T17:07:31;21.80;;;17.90;;
40170;SDS011;37650;52.790;18.268;2022-09-09T17:10:52;21.20;;;19.00;;
40170;SDS011;37650;52.790;18.268;2022-09-09T17:14:15;21.90;;;19.60;;
40170;SDS011;37650;52.790;18.268;2022-09-09T17:17:37;21.90;;;19.60;;
40170;SDS011;37650;52.790;18.268;2022-09-09T17:21:02;22.60;;;20.30;;
40170;SDS011;37650;52.790;18.268;2022-09-09T17:24:28;23.60;;;21.00;;
40170;SDS011;37650;52.790;18.268;2022-09-09T17:27:49;21.60;;;19.30;;
40170;SDS011;37650;52.790;18.268;2022-09-09T17:31:12;23.00;;;20.20;;
40170;SDS011;37650;52.790;18.268;2022-09-09T17:34:37;23.10;;;19.60;;
40170;SDS011;37650;52.790;18.268;2022-09-09T17:37:58;23.20;;;20.80;;
40170;SDS011;37650;52.790;18.268;2022-09-09T17:41:24;24.40;;;21.80;;
40170;SDS011;37650;52.790;18.268;2022-09-09T17:44:50;22.30;;;20.10;;
40170;SDS011;37650;52.790;18.268;2022-09-09T17:48:11;21.80;;;19.50;;
40170;SDS011;37650;52.790;18.268;2022-09-09T17:51:32;22.10;;;19.70;;
40170;SDS011;37650;52.790;18.268;2022-09-09T17:54:54;26.00;;;23.30;;
40170;SDS011;37650;52.790;18.268;2022-09-09T17:58:17;26.50;;;23.80;;
40170;SDS011;37650;52.790;18.268;2022-09-09T18:01:39;24.00;;;21.60;;
40170;SDS011;37650;52.790;18.268;2022-09-09T18:05:03;23.80;;;21.40;;
40170;SDS011;37650;52.790;18.268;2022-09-09T18:08:25;25.10;;;22.50;;
40170;SDS011;37650;52.790;18.268;2022-09-09T18:11:48;24.90;;;22.40;;
40170;SDS011;37650;52.790;18.268;2022-09-09T18:15:13;24.10;;;21.60;;
40170;SDS011;37650;52.790;18.268;2022-09-09T18:18:35;23.20;;;20.80;;
40170;SDS011;37650;52.790;18.268;2022-09-09T18:21:59;23.50;;;21.20;;
40170;SDS011;37650;52.790;18.268;2022-09-09T18:25:26;26.80;;;24.20;;
40170;SDS011;37650;52.790;18.268;2022-09-09T18:28:48;27.60;;;24.80;;
40170;SDS011;37650;52.790;18.268;2022-09-09T18:32:12;27.80;;;25.00;;
40170;SDS011;37650;52.790;18.268;2022-09-09T18:35:35;60.90;;;47.60;;
40170;SDS011;37650;52.790;18.268;2022-09-09T18:38:58;72.10;;;59.80;;
40170;SDS011;37650;52.790;18.268;2022-09-09T18:42:22;51.10;;;45.50;;
40170;SDS011;37650;52.790;18.268;2022-09-09T18:45:43;35.20;;;31.80;;
40170;SDS011;37650;52.790;18.268;2022-09-09T18:49:04;34.20;;;30.70;;
40170;SDS011;37650;52.790;18.268;2022-09-09T18:52:26;32.10;;;29.10;;
40170;SDS011;37650;52.790;18.268;2022-09-09T18:55:56;33.30;;;30.10;;
40170;SDS011;37650;52.790;18.268;2022-09-09T19:10:09;33.40;;;30.20;;
40170;SDS011;37650;52.790;18.268;2022-09-09T19:14:21;31.10;;;28.10;;
40170;SDS011;37650;52.790;18.268;2022-09-09T19:22:47;30.60;;;27.40;;
40170;SDS011;37650;52.790;18.268;2022-09-09T19:30:50;29.30;;;26.40;;
40170;SDS011;37650;52.790;18.268;2022-09-09T19:34:16;26.30;;;23.80;;
40170;SDS011;37650;52.790;18.268;2022-09-09T19:38:36;25.40;;;23.00;;
40170;SDS011;37650;52.790;18.268;2022-09-09T19:58:14;23.90;;;21.50;;
